Latest Weather Observations for Birdsville

IDQ60801

Issued at 11:05 pm EST Tuesday 21 October 2014 (issued every 30 minutes, with the page automatically refreshed every 10 minutes)

About weather observations | Map of weather stations | Latest weather observations for QLD | Other Formats
Station Details ID: 038026 Name: BIRDSVILLE AIRPORT Lat: -25.90 Lon: 139.35 Height: 46.6 m
Data from the previous 72 hours. | See also: Recent months at Birdsville
Date/Time
EST
Temp
°C
App
Temp
°C
Dew
Point
Rel
Hum
%
Delta-T
°C
Wind Press
QNH
hPa
Press
MSL
hPa
Rain
since 9 am
mm
Dir
 
Spd
km/h
Gust
km/h
Spd
kts
Gust
kts
21/11:00pm 26.8 22.7 -2.9 14 13.1 N 9 13 5 7 1018.0 - 0.0
21/10:30pm 27.4 23.4 -2.4 14 13.4 N 9 11 5 6 1018.3 - 0.0
21/10:00pm 27.9 23.9 -2.0 14 13.6 N 9 11 5 6 1018.2 - 0.0
21/09:30pm 29.5 26.1 -0.8 14 14.2 N 7 15 4 8 1017.9 - 0.0
21/09:00pm 29.8 26.6 -0.5 14 14.3 NNE 6 7 3 4 1017.6 1017.4 0.0
21/08:30pm 30.7 27.3 -0.8 13 14.9 NNE 7 9 4 5 1017.4 - 0.0
21/08:00pm 31.7 27.6 -0.1 13 15.4 NE 11 13 6 7 1017.1 - 0.0
21/07:30pm 32.8 28.7 -0.3 12 16.1 NE 11 15 6 8 1016.7 - 0.0
21/07:00pm 34.3 30.2 -0.4 11 17.0 NE 11 15 6 8 1016.3 - 0.0
21/06:30pm 35.9 31.2 0.9 11 17.7 NE 15 20 8 11 1015.8 - 0.0
21/06:00pm 36.5 31.1 1.3 11 17.9 NE 19 24 10 13 1015.6 1015.5 0.0
21/05:30pm 37.2 31.9 1.8 11 18.3 NE 19 30 10 16 1015.3 - 0.0
21/05:00pm 36.8 31.2 1.5 11 18.1 N 20 30 11 16 1015.3 - 0.0
21/04:30pm 37.6 31.4 2.1 11 18.4 ENE 24 35 13 19 1015.2 - 0.0
21/04:00pm 36.9 31.4 1.6 11 18.1 NNE 20 30 11 16 1015.3 - 0.0
21/03:30pm 37.7 32.8 2.2 11 18.5 NNE 17 30 9 16 1015.3 - 0.0
21/03:00pm 38.3 34.3 2.7 11 18.7 NNE 13 30 7 16 1015.7 1015.6 0.0
21/02:30pm 38.5 32.4 2.8 11 18.8 N 24 32 13 17 1016.0 - 0.0
21/02:00pm 37.1 31.8 1.8 11 18.2 NE 19 32 10 17 1016.5 - 0.0
21/01:30pm 37.7 32.1 3.4 12 18.2 NE 22 39 12 21 1017.0 - 0.0
21/01:00pm 36.5 30.7 2.5 12 17.7 NNE 22 35 12 19 1017.6 - 0.0
21/12:30pm 37.0 31.3 2.9 12 17.9 NE 22 39 12 21 1018.2 - 0.0
21/12:00pm 36.6 29.7 2.6 12 17.7 N 28 35 15 19 1018.6 1018.4 0.0
21/11:30am 36.5 31.5 3.7 13 17.4 NNE 19 32 10 17 1019.1 - 0.0
21/11:00am 35.1 29.4 2.6 13 16.8 N 22 32 12 17 1019.4 - 0.0
21/10:30am 34.9 29.1 2.4 13 16.7 NNE 22 30 12 16 1019.6 - 0.0
21/10:00am 34.6 29.0 3.2 14 16.3 N 22 28 12 15 1019.7 - 0.0
21/09:30am 33.1 27.0 3.0 15 15.5 N 24 30 13 16 1019.9 - 0.0
21/09:00am 30.8 25.3 2.1 16 14.3 NNE 20 24 11 13 1020.0 1019.8 0.0
21/08:30am 27.9 22.4 0.6 17 13.0 NNE 19 22 10 12 1020.0 - 0.0
21/08:00am 25.6 21.5 -0.5 18 12.0 NNE 11 13 6 7 1019.4 - 0.0
21/07:30am 24.3 20.7 0.6 21 11.0 NE 9 13 5 7 1019.2 - 0.0
21/07:00am 21.2 16.9 -2.0 21 10.0 NE 11 13 6 7 1018.7 - 0.0
21/06:30am 19.9 15.1 -2.4 22 9.4 NE 13 13 7 7 1018.1 - 0.0
21/06:00am 20.0 15.5 -0.1 26 8.9 ENE 13 13 7 7 1017.7 1017.5 0.0
21/05:30am 20.1 16.5 -2.3 22 9.5 NNE 7 9 4 5 1017.4 - 0.0
21/05:00am 20.6 17.0 -1.8 22 9.6 NNE 7 9 4 5 1017.1 - 0.0
21/04:30am 21.7 17.4 -1.6 21 10.1 NNE 11 15 6 8 1017.0 - 0.0
21/04:00am 21.5 17.8 -3.1 19 10.4 NNE 7 9 4 5 1016.8 - 0.0
21/03:30am 21.7 19.4 -2.2 20 10.3 CALM 0 0 0 0 1016.8 - 0.0
21/03:00am 22.7 18.8 -1.4 20 10.6 NNE 9 9 5 5 1017.0 1016.8 0.0
21/02:30am 22.6 18.6 -2.2 19 10.7 NNE 9 9 5 5 1017.2 - 0.0
21/02:00am 23.2 19.2 -2.4 18 11.1 NNE 9 11 5 6 1017.4 - 0.0
21/01:30am 23.6 19.6 -2.1 18 11.3 NE 9 11 5 6 1017.5 - 0.0
21/01:00am 23.5 19.1 -2.2 18 11.2 NE 11 11 6 6 1017.9 - 0.0
21/12:30am 24.3 20.3 -2.3 17 11.7 NNE 9 11 5 6 1018.1 - 0.0
21/12:00am 24.6 20.6 -2.0 17 11.7 NNE 9 11 5 6 1018.2 1018.0 0.0
 
Date/Time
EST
Temp
°C
App
Temp
°C
Dew
Point
Rel
Hum
%
Delta-T
°C
Wind Press
QNH
hPa
Press
MSL
hPa
Rain
since 9 am
mm
Dir
 
Spd
km/h
Gust
km/h
Spd
kts
Gust
kts
20/11:30pm 25.8 21.6 -1.1 17 12.2 NNE 11 11 6 6 1018.3 - 0.0
20/11:00pm 26.1 21.8 -1.7 16 12.5 NE 11 11 6 6 1018.4 - 0.0
20/10:30pm 28.7 24.4 1.3 17 13.3 ENE 13 15 7 8 1018.5 - 0.0
20/10:00pm 28.1 24.8 2.3 19 12.7 NNE 9 11 5 6 1018.4 - 0.0
20/09:30pm 27.7 24.2 -1.3 15 13.3 NNE 7 15 4 8 1018.1 - 0.0
20/09:00pm 29.4 26.3 0.1 15 14.0 E 6 7 3 4 1017.6 1017.4 0.0
20/08:30pm 31.2 27.2 0.6 14 14.9 E 11 13 6 7 1017.4 - 0.0
20/08:00pm 31.5 28.3 0.8 14 15.0 E 7 9 4 5 1017.1 - 0.0
20/07:30pm 32.8 29.2 0.8 13 15.8 E 9 11 5 6 1016.6 - 0.0
20/07:00pm 33.7 29.7 0.4 12 16.4 ENE 11 15 6 8 1016.2 - 0.0
20/06:30pm 35.1 29.9 0.2 11 17.3 ENE 17 24 9 13 1015.8 - 0.0
20/06:00pm 35.9 30.8 0.9 11 17.6 ENE 17 24 9 13 1015.6 1015.5 0.0
20/05:30pm 36.4 31.7 1.2 11 17.9 NE 15 20 8 11 1015.5 - 0.0
20/05:00pm 36.7 30.8 1.5 11 18.0 E 22 28 12 15 1015.5 - 0.0
20/04:30pm 36.5 32.0 0.0 10 18.2 SE 13 20 7 11 1015.6 - 0.0
20/04:00pm 36.7 32.1 1.5 11 18.0 ESE 15 26 8 14 1015.8 - 0.0
20/03:30pm 36.0 31.3 0.9 11 17.7 SE 15 20 8 11 1016.1 - 0.0
20/03:00pm 36.0 30.5 2.1 12 17.4 E 20 26 11 14 1016.6 1016.5 0.0
20/02:30pm 36.4 30.8 1.2 11 17.9 E 20 44 11 24 1017.2 - 0.0
20/02:00pm 36.6 32.4 1.4 11 18.0 E 13 26 7 14 1017.6 - 0.0
20/01:30pm 35.4 31.6 1.7 12 17.2 E 11 19 6 10 1018.1 - 0.0
20/01:00pm 35.0 30.8 1.4 12 17.0 NNE 13 22 7 12 1018.7 - 0.0
20/12:30pm 35.1 30.7 0.2 11 17.3 E 13 26 7 14 1019.3 - 0.0
20/12:00pm 34.9 30.1 2.4 13 16.7 NNE 17 30 9 16 1019.7 1019.5 0.0
20/11:30am 33.9 29.1 2.7 14 16.0 NNE 17 26 9 14 1020.2 - 0.0
20/11:00am 33.7 27.9 2.5 14 15.9 N 22 30 12 16 1020.4 - 0.0
20/10:30am 32.6 26.3 3.5 16 15.0 N 26 32 14 17 1020.8 - 0.0
20/10:00am 32.0 24.6 3.9 17 14.5 N 32 39 17 21 1020.8 - 0.0
20/09:30am 30.9 23.3 3.8 18 13.9 NNE 33 39 18 21 1020.9 - 0.0
20/09:00am 28.7 22.4 1.3 17 13.2 NNE 24 28 13 15 1021.0 1020.8 0.0
20/08:30am 26.3 19.8 0.1 18 12.2 NNE 24 30 13 16 1020.6 - 0.0
20/08:00am 24.2 18.8 -1.6 18 11.5 NE 17 24 9 13 1020.3 - 0.0
20/07:30am 21.6 17.1 -3.0 19 10.4 NNE 11 13 6 7 1020.0 - 0.0
20/07:00am 20.6 15.7 -3.1 20 9.9 NNE 13 15 7 8 1019.4 - 0.0
20/06:30am 19.1 14.8 -4.4 20 9.4 N 9 9 5 5 1019.0 - 0.0
20/06:00am 18.7 13.7 -4.7 20 9.3 NNE 13 15 7 8 1018.5 1018.3 0.0
20/05:30am 19.3 14.6 -4.9 19 9.6 NNE 11 13 6 7 1018.3 - 0.0
20/05:00am 19.9 15.7 -3.7 20 9.7 NNE 9 11 5 6 1018.2 - 0.0
20/04:30am 19.7 15.4 -5.3 18 9.9 N 9 11 5 6 1017.9 - 0.0
20/04:00am 20.3 15.6 -4.8 18 10.1 N 11 13 6 7 1017.7 - 0.0
20/03:30am 21.0 16.0 -4.2 18 10.3 NNE 13 15 7 8 1017.5 - 0.0
20/03:00am 21.2 16.2 -4.0 18 10.4 N 13 15 7 8 1017.4 1017.2 0.0
20/02:30am 21.0 16.2 -5.7 16 10.6 NNE 11 13 6 7 1017.4 - 0.0
20/02:00am 21.6 16.4 -6.1 15 11.0 NNE 13 13 7 7 1017.5 - 0.0
20/01:30am 22.0 17.1 -6.7 14 11.3 NNE 11 11 6 6 1017.9 - 0.0
20/01:00am 22.5 17.7 -6.3 14 11.5 NE 11 11 6 6 1018.1 - 0.0
20/12:30am 23.1 18.3 -5.8 14 11.7 NNE 11 13 6 7 1018.1 - 0.0
20/12:00am 23.8 19.1 -5.3 14 12.0 NNE 11 11 6 6 1018.2 1018.0 0.0
 
Date/Time
EST
Temp
°C
App
Temp
°C
Dew
Point
Rel
Hum
%
Delta-T
°C
Wind Press
QNH
hPa
Press
MSL
hPa
Rain
since 9 am
mm
Dir
 
Spd
km/h
Gust
km/h
Spd
kts
Gust
kts
19/11:30pm 24.5 19.7 -5.7 13 12.5 N 11 13 6 7 1018.4 - 0.0
19/11:00pm 25.1 21.3 -5.2 13 12.7 ENE 6 7 3 4 1018.4 - 0.0
19/10:30pm 25.9 21.5 -5.6 12 13.2 E 9 9 5 5 1018.3 - 0.0
19/10:00pm 29.1 24.7 -2.1 13 14.3 E 11 15 6 8 1018.4 - 0.0
19/09:30pm 29.2 24.7 -3.1 12 14.5 E 11 13 6 7 1018.4 - 0.0
19/09:00pm 29.0 24.4 -4.4 11 14.6 ESE 11 15 6 8 1018.1 1017.9 0.0
19/08:30pm 30.1 26.5 -3.6 11 15.2 ENE 6 7 3 4 1017.6 - 0.0
19/08:00pm 30.6 26.7 -4.5 10 15.6 ENE 7 9 4 5 1017.4 - 0.0
19/07:30pm 32.3 29.2 0.4 13 15.6 ENE 6 7 3 4 1017.0 - 0.0
19/07:00pm 34.1 30.4 -3.2 9 17.4 ENE 7 11 4 6 1016.7 - 0.0
19/06:30pm 34.9 31.0 -4.2 8 18.1 NE 7 15 4 8 1016.4 - 0.0
19/06:00pm 35.7 32.1 -3.6 8 18.4 ENE 6 9 3 5 1016.0 1015.9 0.0
19/05:30pm 35.7 31.2 -3.6 8 18.4 NNE 11 22 6 12 1015.7 - 0.0
19/05:00pm 36.3 32.2 -3.2 8 18.7 ENE 9 15 5 8 1015.6 - 0.0
19/04:30pm 36.0 31.5 -3.4 8 18.6 NNE 11 22 6 12 1015.7 - 0.0
19/04:00pm 36.6 31.6 -4.7 7 19.2 ENE 13 22 7 12 1015.7 - 0.0
19/03:30pm 36.5 32.0 -3.0 8 18.8 ENE 11 22 6 12 1015.7 - 0.0
19/03:00pm 36.2 30.7 -5.0 7 18.9 ENE 15 20 8 11 1016.0 1015.9 0.0
19/02:30pm 35.8 30.3 -5.3 7 18.8 N 15 20 8 11 1016.3 - 0.0
19/02:00pm 36.5 31.1 -4.8 7 19.1 NE 15 32 8 17 1016.7 - 0.0
19/01:30pm 35.8 29.7 -3.5 8 18.5 N 19 32 10 17 1017.3 - 0.0
19/01:00pm 35.2 29.5 -4.0 8 18.2 NE 17 26 9 14 1017.8 - 0.0
19/12:30pm 35.3 30.3 -3.9 8 18.2 NNE 13 28 7 15 1018.1 - 0.0
19/12:00pm 34.9 28.6 -4.2 8 18.0 N 20 28 11 15 1018.4 1018.2 0.0
19/11:30am 34.2 27.0 -1.7 10 17.2 NNE 26 35 14 19 1018.9 - 0.0
19/11:00am 33.7 25.7 -2.1 10 17.0 NNE 30 39 16 21 1019.2 - 0.0
19/10:30am 32.4 24.7 -3.1 10 16.4 NNE 28 33 15 18 1019.7 - 0.0
19/10:00am 30.8 22.9 -4.3 10 15.7 NE 28 35 15 19 1019.9 - 0.0
19/09:30am 30.4 22.1 -4.6 10 15.5 NE 30 35 16 19 1020.0 - 0.0
19/09:00am 28.9 20.9 -5.7 10 14.8 NE 28 35 15 19 1020.0 1019.8 0.0
19/08:30am 27.3 19.7 -5.7 11 14.0 ENE 26 32 14 17 1019.9 - 0.0
19/08:00am 24.9 18.4 -7.5 11 13.0 ENE 19 28 10 15 1019.7 - 0.0
19/07:30am 21.5 16.5 -8.0 13 11.3 ENE 11 15 6 8 1019.7 - 0.0
19/07:00am 19.9 15.7 -7.5 15 10.4 E 7 11 4 6 1019.6 - 0.0
19/06:30am 19.2 15.0 -7.2 16 10.0 E 7 11 4 6 1019.4 - 0.0
19/06:00am 18.8 14.2 -8.3 15 10.0 E 9 11 5 6 1019.0 1018.8 0.0
19/05:30am 19.0 14.4 -8.2 15 10.1 E 9 9 5 5 1018.7 - 0.0
19/05:00am 19.0 14.9 -6.6 17 9.8 E 7 11 4 6 1018.4 - 0.0
19/04:30am 19.0 14.4 -8.2 15 10.1 E 9 9 5 5 1018.2 - 0.0
19/04:00am 18.6 14.3 -8.5 15 9.9 SE 7 9 4 5 1018.1 - 0.0
19/03:30am 17.9 14.1 -9.9 14 9.8 SE 4 7 2 4 1018.0 - 0.0
19/03:00am 17.7 14.6 -10.1 14 9.7 CALM 0 6 0 3 1018.1 1017.9 0.0
19/02:30am 18.7 14.6 -9.3 14 10.1 SE 6 7 3 4 1018.1 - 0.0
19/02:00am 18.7 14.2 -11.2 12 10.4 SE 7 9 4 5 1018.3 - 0.0
19/01:30am 19.4 15.0 -10.7 12 10.7 SSE 7 9 4 5 1018.6 - 0.0
19/01:00am 20.1 15.6 -11.2 11 11.1 SE 7 9 4 5 1018.8 - 0.0
19/12:30am 21.3 16.9 -10.3 11 11.5 SE 7 11 4 6 1018.9 - 0.0
19/12:00am 21.7 17.2 -11.2 10 11.8 SSE 7 9 4 5 1019.2 1019.0 0.0
 
Date/Time
EST
Temp
°C
App
Temp
°C
Dew
Point
Rel
Hum
%
Delta-T
°C
Wind Press
QNH
hPa
Press
MSL
hPa
Rain
since 9 am
mm
Dir
 
Spd
km/h
Gust
km/h
Spd
kts
Gust
kts
18/11:30pm 22.0 16.8 -11.0 10 12.0 SE 11 13 6 7 1019.2 - 0.0

Other Formats:

Comma delimited format used in spreadsheet applications
http://www.bom.gov.au/fwo/IDQ60801/IDQ60801.95482.axf

JavaScript Object Notation format (JSON) in row-major order
http://www.bom.gov.au/fwo/IDQ60801/IDQ60801.95482.json